Time;durP1;ratioP1;P1;durP2;ratioP2;P2;SDS_P1;SDS_P2;PMS_P1;PMS_P2;Temp;Humidity;BMP_temperature;BMP_pressure;BME280_temperature;BME280_humidity;BME280_pressure;Samples;Min_cycle;Max_cycle;Signal;HPM_P1;HPM_P2
2022/07/30 00:00:45;;;;;;;2.47;1.05;;;19.50;84.30;;;;;;5035207;28;20206;-70
2022/07/30 00:03:12;;;;;;;1.48;0.82;;;19.50;84.70;;;;;;5035381;28;20639;-71
2022/07/30 00:05:38;;;;;;;2.13;0.90;;;19.50;85.50;;;;;;5033990;28;20207;-70
2022/07/30 00:08:05;;;;;;;2.65;1.08;;;19.60;84.90;;;;;;5034285;28;20210;-71
2022/07/30 00:10:32;;;;;;;2.60;1.00;;;19.60;84.90;;;;;;5033783;28;20297;-70
2022/07/30 00:13:00;;;;;;;1.80;1.20;;;19.60;85.00;;;;;;5033947;28;20611;-70
2022/07/30 00:15:27;;;;;;;1.30;0.95;;;19.60;84.90;;;;;;5034919;28;20230;-70
2022/07/30 00:17:54;;;;;;;2.53;1.05;;;19.60;84.90;;;;;;5034344;28;20222;-70
2022/07/30 00:20:21;;;;;;;1.17;1.08;;;19.50;84.80;;;;;;5035405;28;20564;-70
2022/07/30 00:22:48;;;;;;;1.27;1.05;;;19.60;84.90;;;;;;5021168;28;20202;-71
2022/07/30 00:25:15;;;;;;;3.80;1.65;;;19.60;85.30;;;;;;5033843;28;20225;-70
2022/07/30 00:27:43;;;;;;;1.05;0.95;;;19.60;85.70;;;;;;5032024;28;20206;-70
2022/07/30 00:30:12;;;;;;;2.00;1.13;;;19.50;86.40;;;;;;5033960;28;20242;-71
2022/07/30 00:32:39;;;;;;;1.77;0.95;;;19.50;87.90;;;;;;5034663;28;20207;-70
2022/07/30 00:35:07;;;;;;;3.05;1.02;;;19.50;88.80;;;;;;5032501;28;20202;-69
2022/07/30 00:37:33;;;;;;;3.67;1.02;;;19.40;89.10;;;;;;5032596;28;20210;-70
2022/07/30 00:40:00;;;;;;;1.95;1.13;;;19.40;89.60;;;;;;5032782;28;20210;-71
2022/07/30 00:42:37;;;;;;;2.42;1.00;;;19.40;90.00;;;;;;5032520;28;20233;-70
2022/07/30 00:45:05;;;;;;;2.38;1.10;;;19.30;90.10;;;;;;5033032;28;20239;-71
2022/07/30 00:47:33;;;;;;;1.48;1.13;;;19.20;90.30;;;;;;5034394;28;20543;-70
2022/07/30 00:50:03;;;;;;;1.63;0.90;;;19.20;90.40;;;;;;5024515;28;20312;-71
2022/07/30 00:52:30;;;;;;;3.70;1.25;;;19.20;90.60;;;;;;5034258;28;20276;-71
2022/07/30 00:54:56;;;;;;;1.05;0.90;;;19.20;90.60;;;;;;5033788;28;20238;-71
2022/07/30 00:57:23;;;;;;;2.53;1.23;;;19.10;90.70;;;;;;5032683;28;20652;-69
2022/07/30 00:59:50;;;;;;;2.13;1.05;;;19.10;90.70;;;;;;5033293;28;20577;-70
2022/07/30 01:02:17;;;;;;;2.42;1.00;;;19.10;90.90;;;;;;5022936;28;20214;-70
2022/07/30 01:04:45;;;;;;;2.25;1.27;;;19.00;90.90;;;;;;5031625;28;20206;-70
2022/07/30 01:07:11;;;;;;;1.45;0.98;;;19.00;91.00;;;;;;5031501;28;20667;-70
2022/07/30 01:09:38;;;;;;;1.45;1.00;;;19.00;91.10;;;;;;5033728;28;20571;-70
2022/07/30 01:12:06;;;;;;;3.17;1.25;;;19.00;91.20;;;;;;5032294;28;20206;-71
2022/07/30 01:14:33;;;;;;;0.90;0.80;;;18.90;91.20;;;;;;5026567;28;20566;-71
2022/07/30 01:17:01;;;;;;;2.00;1.10;;;18.90;91.30;;;;;;5033733;28;20238;-71
2022/07/30 01:19:48;;;;;;;2.42;1.20;;;18.90;91.40;;;;;;5034500;28;20614;-71
2022/07/30 01:22:24;;;;;;;2.90;1.20;;;18.90;91.50;;;;;;5029494;28;20571;-70
2022/07/30 01:24:58;;;;;;;3.17;1.10;;;18.90;91.70;;;;;;5033911;28;20214;-70
2022/07/30 01:27:29;;;;;;;2.80;0.90;;;18.80;91.70;;;;;;5033070;28;20201;-70
2022/07/30 01:29:57;;;;;;;1.35;1.23;;;18.80;91.80;;;;;;5032811;28;20217;-70
2022/07/30 01:32:25;;;;;;;1.65;1.27;;;18.70;91.80;;;;;;5032602;28;20207;-69
2022/07/30 01:34:55;;;;;;;2.20;1.13;;;18.70;92.00;;;;;;5026851;28;20210;-71
2022/07/30 01:37:23;;;;;;;1.95;1.10;;;18.70;92.20;;;;;;5031786;28;20629;-70
2022/07/30 01:39:52;;;;;;;4.00;1.10;;;18.70;92.30;;;;;;5032367;28;20213;-70
2022/07/30 01:42:20;;;;;;;1.20;1.10;;;18.70;92.40;;;;;;5032654;28;20207;-70
2022/07/30 01:44:49;;;;;;;1.98;1.05;;;18.70;92.60;;;;;;5033496;28;20257;-70
2022/07/30 01:47:18;;;;;;;3.28;1.15;;;18.70;92.80;;;;;;5032378;28;20221;-70
2022/07/30 01:49:46;;;;;;;2.55;1.05;;;18.60;92.80;;;;;;5032500;28;20211;-70
2022/07/30 01:52:16;;;;;;;1.45;1.10;;;18.60;92.80;;;;;;5028358;28;20210;-70
2022/07/30 01:54:45;;;;;;;1.40;1.10;;;18.60;92.90;;;;;;5029085;28;20245;-70
2022/07/30 01:57:13;;;;;;;2.15;1.20;;;18.70;92.90;;;;;;5032910;28;20626;-71
2022/07/30 01:59:43;;;;;;;1.88;1.20;;;18.70;93.10;;;;;;5032651;28;20206;-70
2022/07/30 02:02:11;;;;;;;3.80;1.10;;;18.70;93.20;;;;;;5033062;28;20314;-72
2022/07/30 02:04:38;;;;;;;1.80;1.30;;;18.70;93.40;;;;;;5031391;28;20218;-70
2022/07/30 02:07:11;;;;;;;3.38;1.27;;;18.70;93.40;;;;;;5029601;28;20214;-70
2022/07/30 02:09:45;;;;;;;1.25;0.82;;;18.70;93.50;;;;;;5032304;28;20210;-70
2022/07/30 02:12:29;;;;;;;4.18;1.13;;;18.70;93.60;;;;;;5032525;28;20647;-71
2022/07/30 02:15:03;;;;;;;1.20;1.10;;;18.80;93.60;;;;;;5033570;28;20742;-71
2022/07/30 02:17:38;;;;;;;2.20;1.08;;;18.70;93.70;;;;;;5031554;28;20215;-70
2022/07/30 02:20:06;;;;;;;1.30;0.90;;;18.60;93.80;;;;;;5035359;28;20682;-70
2022/07/30 02:22:37;;;;;;;3.97;0.98;;;18.60;94.00;;;;;;5032500;28;20209;-70
2022/07/30 02:25:06;;;;;;;1.55;1.10;;;18.60;94.10;;;;;;5032354;28;20202;-70
2022/07/30 02:27:36;;;;;;;4.55;1.20;;;18.70;94.20;;;;;;5031812;28;20678;-69
2022/07/30 02:30:04;;;;;;;1.80;1.13;;;18.70;94.20;;;;;;5032098;28;20210;-69
2022/07/30 02:32:37;;;;;;;2.03;1.05;;;18.70;94.20;;;;;;5031314;28;20206;-71
2022/07/30 02:35:09;;;;;;;1.63;1.52;;;18.70;94.20;;;;;;5030069;28;20222;-69
2022/07/30 02:37:36;;;;;;;2.65;1.10;;;18.70;94.40;;;;;;5031289;28;20687;-69
2022/07/30 02:40:04;;;;;;;1.33;1.23;;;18.70;94.50;;;;;;5032385;28;20222;-69
2022/07/30 02:42:31;;;;;;;1.52;1.10;;;18.60;94.60;;;;;;5027534;28;20203;-69
2022/07/30 02:44:59;;;;;;;2.40;0.98;;;18.70;94.60;;;;;;5031894;28;20621;-69
2022/07/30 02:47:28;;;;;;;4.03;1.20;;;18.70;94.60;;;;;;5030669;28;20206;-70
2022/07/30 02:49:58;;;;;;;1.50;0.95;;;18.70;94.80;;;;;;5031853;28;20214;-71
2022/07/30 02:52:27;;;;;;;1.58;1.08;;;18.70;94.80;;;;;;5031070;28;20581;-71
2022/07/30 02:54:57;;;;;;;1.70;1.00;;;18.70;94.90;;;;;;5031709;28;20237;-70
2022/07/30 02:57:24;;;;;;;1.08;1.08;;;18.70;94.90;;;;;;5031327;28;20234;-69
2022/07/30 02:59:52;;;;;;;1.65;1.13;;;18.70;95.00;;;;;;5031240;28;20210;-71
2022/07/30 03:02:20;;;;;;;1.65;1.02;;;18.70;95.10;;;;;;5030195;28;20218;-70
2022/07/30 03:04:48;;;;;;;1.00;1.00;;;18.70;95.30;;;;;;5030468;28;20226;-70
2022/07/30 03:07:17;;;;;;;2.13;1.10;;;18.70;95.40;;;;;;5035401;28;20209;-70
2022/07/30 03:09:45;;;;;;;1.95;1.00;;;18.70;95.30;;;;;;5036372;28;20213;-71
2022/07/30 03:12:14;;;;;;;1.25;1.10;;;18.70;95.50;;;;;;5035368;28;20675;-71
2022/07/30 03:14:40;;;;;;;3.10;1.13;;;18.70;95.60;;;;;;5036332;28;20206;-70
2022/07/30 03:17:10;;;;;;;2.45;0.90;;;18.60;95.70;;;;;;5034864;28;20329;-70
2022/07/30 03:19:39;;;;;;;4.15;1.08;;;18.60;95.90;;;;;;5035538;28;20262;-71
2022/07/30 03:22:08;;;;;;;3.10;1.05;;;18.60;96.00;;;;;;5035432;28;20222;-70
2022/07/30 03:24:38;;;;;;;3.60;1.27;;;18.60;96.10;;;;;;5035895;28;20211;-70
2022/07/30 03:27:06;;;;;;;1.80;1.20;;;18.60;96.20;;;;;;5036515;28;20226;-70
2022/07/30 03:29:35;;;;;;;1.67;1.55;;;18.60;96.20;;;;;;5035178;28;20210;-71
2022/07/30 03:32:03;;;;;;;1.00;1.00;;;18.60;96.30;;;;;;5033225;28;20202;-70
2022/07/30 03:34:33;;;;;;;1.50;1.15;;;18.60;96.20;;;;;;5034198;28;20582;-71
2022/07/30 03:37:00;;;;;;;1.40;1.10;;;18.60;96.50;;;;;;5034243;28;20231;-71
2022/07/30 03:39:28;;;;;;;3.53;1.20;;;18.50;96.50;;;;;;5035543;28;20203;-70
2022/07/30 03:41:56;;;;;;;2.67;1.02;;;18.50;96.70;;;;;;5035376;28;20656;-70
2022/07/30 03:44:23;;;;;;;3.42;1.27;;;18.50;96.80;;;;;;5033696;28;20199;-70
2022/07/30 03:46:52;;;;;;;2.75;1.30;;;18.60;97.00;;;;;;5034843;28;20211;-69
2022/07/30 03:49:21;;;;;;;3.97;1.17;;;18.60;97.10;;;;;;5031861;28;20210;-71
2022/07/30 03:51:48;;;;;;;2.72;0.95;;;18.50;97.10;;;;;;5034831;28;20596;-70
2022/07/30 03:54:16;;;;;;;1.30;0.95;;;18.60;97.30;;;;;;5034546;28;20749;-71
2022/07/30 03:56:43;;;;;;;2.25;1.27;;;18.60;97.30;;;;;;5035471;28;20698;-70
2022/07/30 03:59:13;;;;;;;2.42;1.33;;;18.60;97.30;;;;;;5035281;28;20214;-70
2022/07/30 04:01:40;;;;;;;8.77;1.63;;;18.50;97.50;;;;;;5032648;28;20253;-71
2022/07/30 04:04:08;;;;;;;1.38;1.27;;;18.60;97.60;;;;;;5033081;28;20618;-70
2022/07/30 04:06:38;;;;;;;1.92;1.05;;;18.50;97.60;;;;;;5024508;28;20562;-71
2022/07/30 04:09:06;;;;;;;1.92;1.10;;;18.60;97.80;;;;;;5033941;28;20210;-69
2022/07/30 04:11:32;;;;;;;1.45;0.90;;;18.60;97.90;;;;;;5034878;28;20210;-70
2022/07/30 04:13:59;;;;;;;21.70;1.67;;;18.60;97.90;;;;;;5034098;28;20245;-69
2022/07/30 04:16:38;;;;;;;1.15;1.00;;;18.60;98.00;;;;;;5034174;28;20230;-70
2022/07/30 04:19:10;;;;;;;1.75;1.13;;;18.60;98.10;;;;;;5034383;28;20210;-70
2022/07/30 04:21:38;;;;;;;1.15;1.05;;;18.60;98.10;;;;;;5033838;28;20206;-70
2022/07/30 04:24:06;;;;;;;2.42;1.80;;;18.70;98.10;;;;;;5033991;28;20234;-70
2022/07/30 04:26:36;;;;;;;9.45;2.17;;;18.60;98.20;;;;;;5034359;28;20215;-70
2022/07/30 04:29:05;;;;;;;2.05;1.00;;;18.70;98.50;;;;;;5033692;28;20206;-71
2022/07/30 04:31:35;;;;;;;1.88;1.30;;;18.70;98.50;;;;;;5032864;28;20213;-69
2022/07/30 04:34:02;;;;;;;4.03;1.20;;;18.70;99.00;;;;;;5031944;28;20284;-71
2022/07/30 04:36:30;;;;;;;4.97;1.50;;;18.70;98.70;;;;;;5034734;28;20245;-70
2022/07/30 04:38:57;;;;;;;2.15;1.02;;;18.70;98.80;;;;;;5021149;28;20208;-71
2022/07/30 04:41:24;;;;;;;1.88;0.90;;;18.70;98.80;;;;;;5033368;28;20663;-71
2022/07/30 04:43:51;;;;;;;0.98;0.95;;;18.80;98.70;;;;;;5034660;28;20213;-70
2022/07/30 04:46:18;;;;;;;2.83;1.17;;;18.80;98.80;;;;;;5033258;28;20206;-69
2022/07/30 04:48:46;;;;;;;1.95;1.15;;;18.80;98.90;;;;;;5032546;28;20207;-71
2022/07/30 04:51:19;;;;;;;4.30;1.20;;;18.90;99.00;;;;;;5033285;28;20207;-71
2022/07/30 04:53:48;;;;;;;2.13;0.85;;;18.90;99.00;;;;;;5032814;28;20246;-70
2022/07/30 04:56:15;;;;;;;1.27;1.00;;;18.90;99.10;;;;;;5033524;28;20659;-70
2022/07/30 04:58:43;;;;;;;2.47;1.00;;;18.90;99.10;;;;;;5033805;28;20261;-70
2022/07/30 05:01:11;;;;;;;1.40;1.30;;;18.90;99.20;;;;;;5032369;28;20210;-70
2022/07/30 05:03:39;;;;;;;1.00;0.90;;;19.00;99.30;;;;;;5032007;28;20214;-71
2022/07/30 05:06:11;;;;;;;1.75;1.17;;;19.00;99.20;;;;;;5033218;28;20633;-71
2022/07/30 05:08:39;;;;;;;1.30;1.20;;;19.10;99.30;;;;;;5032760;28;20590;-70
2022/07/30 05:11:06;;;;;;;2.30;1.20;;;19.10;99.20;;;;;;5033039;28;20215;-71
2022/07/30 05:13:32;;;;;;;1.88;1.17;;;19.10;99.20;;;;;;5033603;28;20214;-70
2022/07/30 05:15:59;;;;;;;2.15;0.90;;;19.10;99.30;;;;;;5032123;28;20210;-71
2022/07/30 05:18:26;;;;;;;2.38;1.00;;;19.10;99.30;;;;;;5033344;28;20585;-71
2022/07/30 05:20:53;;;;;;;2.28;1.20;;;19.10;99.50;;;;;;5034339;28;20214;-70
2022/07/30 05:23:21;;;;;;;1.25;0.98;;;19.10;99.50;;;;;;5031697;28;20215;-71
2022/07/30 05:25:47;;;;;;;2.10;1.20;;;19.10;99.60;;;;;;5032055;28;20226;-70
2022/07/30 05:28:14;;;;;;;1.42;1.15;;;19.10;99.70;;;;;;5029937;28;20214;-70
2022/07/30 05:30:41;;;;;;;1.98;1.65;;;19.10;99.70;;;;;;5033461;28;20207;-70
2022/07/30 05:33:08;;;;;;;1.45;1.35;;;19.10;99.90;;;;;;5031902;28;20677;-70
2022/07/30 05:35:34;;;;;;;1.35;1.25;;;19.10;99.90;;;;;;5033752;28;20215;-70
2022/07/30 05:38:01;;;;;;;1.40;0.85;;;19.20;99.90;;;;;;5032702;28;20226;-71
2022/07/30 05:40:29;;;;;;;1.17;1.00;;;19.10;99.90;;;;;;5032958;28;20210;-70
2022/07/30 05:42:56;;;;;;;1.45;1.08;;;19.10;99.90;;;;;;5033307;28;20203;-70
2022/07/30 05:45:23;;;;;;;4.15;1.42;;;19.10;99.90;;;;;;5029069;28;20313;-69
2022/07/30 05:47:49;;;;;;;9.93;2.00;;;19.10;99.90;;;;;;5031985;28;20206;-69
2022/07/30 05:50:16;;;;;;;3.33;1.30;;;19.20;99.90;;;;;;5033229;28;20206;-70
2022/07/30 05:52:43;;;;;;;1.65;1.20;;;19.20;99.90;;;;;;5030614;28;20207;-70
2022/07/30 05:55:10;;;;;;;2.35;1.10;;;19.30;99.90;;;;;;5031601;28;20249;-71
2022/07/30 05:57:40;;;;;;;3.03;1.35;;;19.30;99.90;;;;;;5030581;28;20222;-70
2022/07/30 06:00:09;;;;;;;3.95;1.20;;;19.30;99.90;;;;;;5032272;28;20207;-71
2022/07/30 06:02:36;;;;;;;3.10;1.00;;;19.30;99.90;;;;;;5029615;28;20659;-71
2022/07/30 06:05:03;;;;;;;3.75;1.42;;;19.30;99.90;;;;;;5032575;28;20211;-71
2022/07/30 06:07:30;;;;;;;4.20;1.30;;;19.20;99.90;;;;;;5032522;28;20230;-72
2022/07/30 06:09:59;;;;;;;1.65;1.40;;;19.20;99.90;;;;;;5032470;28;20211;-70
2022/07/30 06:12:26;;;;;;;2.88;1.27;;;19.30;99.90;;;;;;5031096;28;20306;-69
2022/07/30 06:14:54;;;;;;;1.70;1.20;;;19.20;99.90;;;;;;5031570;28;20206;-70
2022/07/30 06:17:21;;;;;;;1.30;1.20;;;19.20;99.90;;;;;;5031390;28;20214;-72
2022/07/30 06:19:49;;;;;;;6.13;1.50;;;19.20;99.90;;;;;;5030981;28;20203;-72
2022/07/30 06:22:16;;;;;;;5.90;1.40;;;19.20;99.90;;;;;;5032971;28;20627;-72
2022/07/30 06:24:43;;;;;;;3.95;1.50;;;19.20;99.90;;;;;;5032706;28;20686;-70
2022/07/30 06:27:10;;;;;;;1.48;1.38;;;19.20;99.90;;;;;;5031018;28;20218;-70
2022/07/30 06:29:37;;;;;;;2.45;1.30;;;19.20;99.90;;;;;;5031394;28;20210;-70
2022/07/30 06:32:06;;;;;;;2.67;1.30;;;19.20;99.90;;;;;;5029180;28;20280;-70
2022/07/30 06:34:33;;;;;;;5.70;1.70;;;19.30;99.90;;;;;;5030509;28;20203;-70
2022/07/30 06:37:00;;;;;;;2.08;1.25;;;19.30;99.90;;;;;;5031066;28;20223;-71
2022/07/30 06:39:27;;;;;;;2.92;1.48;;;19.40;99.90;;;;;;5030799;28;20251;-72
2022/07/30 06:41:54;;;;;;;3.10;1.58;;;19.40;99.90;;;;;;5032555;28;20724;-70
2022/07/30 06:44:21;;;;;;;1.75;1.00;;;19.50;99.90;;;;;;5030007;28;20229;-70
2022/07/30 06:46:48;;;;;;;5.28;1.80;;;19.60;99.90;;;;;;5032759;28;20210;-71
2022/07/30 06:49:16;;;;;;;1.20;1.10;;;19.70;99.90;;;;;;5030819;28;20560;-73
2022/07/30 06:51:42;;;;;;;2.58;1.60;;;19.70;99.90;;;;;;5029640;28;20230;-70
2022/07/30 06:54:09;;;;;;;4.35;1.70;;;19.70;99.90;;;;;;5031957;28;20264;-69
2022/07/30 06:56:36;;;;;;;1.30;1.20;;;19.70;99.90;;;;;;5031957;28;20202;-69
2022/07/30 06:59:03;;;;;;;4.00;1.70;;;19.80;99.90;;;;;;5025020;28;20237;-68
2022/07/30 07:01:30;;;;;;;2.83;1.42;;;19.80;99.90;;;;;;5028469;28;20659;-68
2022/07/30 07:03:57;;;;;;;3.50;1.60;;;19.80;99.90;;;;;;5022925;28;20207;-70
2022/07/30 07:06:25;;;;;;;3.38;1.50;;;19.80;99.90;;;;;;5027493;28;20260;-69
2022/07/30 07:08:52;;;;;;;1.52;1.33;;;19.80;99.90;;;;;;5027435;28;20210;-68
2022/07/30 07:11:19;;;;;;;3.28;1.50;;;19.90;99.90;;;;;;5031562;28;20202;-69
2022/07/30 07:13:45;;;;;;;3.80;1.63;;;19.90;99.90;;;;;;5032712;28;20616;-70
2022/07/30 07:16:12;;;;;;;3.47;1.40;;;19.90;99.90;;;;;;5033431;28;20225;-71
2022/07/30 07:18:39;;;;;;;5.03;1.23;;;20.00;99.90;;;;;;5029389;28;20230;-69
2022/07/30 07:21:07;;;;;;;3.13;1.65;;;20.00;99.90;;;;;;5029571;28;20210;-69
2022/07/30 07:23:35;;;;;;;1.55;1.30;;;20.00;99.90;;;;;;5030296;28;20310;-69
2022/07/30 07:26:02;;;;;;;3.72;1.52;;;20.00;99.90;;;;;;5033355;28;20257;-69
2022/07/30 07:28:29;;;;;;;2.13;1.40;;;20.10;99.90;;;;;;5032985;28;20253;-68
2022/07/30 07:30:56;;;;;;;2.75;1.50;;;20.10;99.90;;;;;;5031935;28;20280;-70
2022/07/30 07:33:22;;;;;;;5.00;1.50;;;20.10;99.90;;;;;;5021921;28;20289;-71
2022/07/30 07:35:49;;;;;;;1.40;1.30;;;20.20;99.90;;;;;;5033657;28;20218;-69
2022/07/30 07:38:16;;;;;;;1.25;1.00;;;20.30;99.90;;;;;;5022344;28;20229;-68
2022/07/30 07:40:45;;;;;;;4.50;1.33;;;20.50;99.90;;;;;;5032834;28;20207;-67
2022/07/30 07:43:12;;;;;;;2.95;1.50;;;20.60;99.90;;;;;;5031298;28;20215;-69
2022/07/30 07:45:39;;;;;;;2.50;1.48;;;20.70;99.90;;;;;;5033027;28;20616;-69
2022/07/30 07:48:06;;;;;;;3.92;1.60;;;20.70;99.90;;;;;;5032828;28;20607;-69
2022/07/30 07:50:33;;;;;;;3.05;1.70;;;20.80;99.90;;;;;;5032783;28;20231;-68
2022/07/30 07:53:00;;;;;;;2.67;1.38;;;21.00;99.90;;;;;;5034804;28;20206;-69
2022/07/30 07:55:29;;;;;;;7.38;2.50;;;21.10;99.90;;;;;;5034619;28;20281;-68
2022/07/30 07:57:57;;;;;;;3.20;2.00;;;21.10;99.90;;;;;;5033588;28;20321;-69
2022/07/30 08:00:24;;;;;;;2.58;2.08;;;21.20;99.90;;;;;;5027427;28;20213;-68
2022/07/30 08:02:50;;;;;;;8.68;3.33;;;21.30;99.90;;;;;;5035310;28;20210;-68
2022/07/30 08:05:17;;;;;;;2.85;1.77;;;21.40;99.90;;;;;;5034379;28;20224;-69
2022/07/30 08:07:45;;;;;;;5.85;2.40;;;21.60;99.90;;;;;;5031730;28;20206;-66
2022/07/30 08:10:14;;;;;;;4.45;2.03;;;21.70;99.90;;;;;;5021170;28;20667;-66
2022/07/30 08:12:41;;;;;;;6.03;3.00;;;21.80;99.90;;;;;;5025072;28;20211;-66
2022/07/30 08:15:10;;;;;;;6.47;3.00;;;21.90;99.90;;;;;;5033125;28;20725;-68
2022/07/30 08:17:40;;;;;;;9.63;2.92;;;22.10;99.90;;;;;;5033571;28;20202;-68
2022/07/30 08:20:08;;;;;;;5.13;3.38;;;22.30;99.90;;;;;;5033215;28;20655;-69
2022/07/30 08:22:35;;;;;;;9.25;5.03;;;22.40;99.90;;;;;;5034083;28;20206;-70
2022/07/30 08:25:04;;;;;;;5.20;3.08;;;22.50;99.90;;;;;;5032580;28;20598;-69
2022/07/30 08:27:31;;;;;;;6.22;3.55;;;22.60;99.90;;;;;;5028341;28;20584;-70
2022/07/30 08:29:58;;;;;;;8.23;3.50;;;22.70;99.90;;;;;;5027095;28;20914;-69
2022/07/30 08:32:26;;;;;;;3.03;2.35;;;22.70;99.90;;;;;;5033404;28;20230;-70
2022/07/30 08:34:53;;;;;;;2.63;1.95;;;22.90;99.90;;;;;;5033865;28;20639;-68
2022/07/30 08:37:20;;;;;;;4.40;1.73;;;22.90;99.90;;;;;;5033436;28;20207;-69
2022/07/30 08:39:50;;;;;;;5.00;1.85;;;23.00;99.90;;;;;;5033819;28;20234;-71
2022/07/30 08:42:17;;;;;;;3.10;1.70;;;23.10;99.90;;;;;;5029476;28;20210;-70
2022/07/30 08:44:45;;;;;;;3.58;1.77;;;23.10;99.90;;;;;;5031020;28;20609;-73
2022/07/30 08:47:17;;;;;;;2.72;1.60;;;23.10;99.90;;;;;;5033460;28;20216;-69
2022/07/30 08:49:46;;;;;;;3.38;1.85;;;23.20;99.90;;;;;;5033391;28;20198;-69
2022/07/30 08:52:14;;;;;;;4.22;1.80;;;23.20;99.90;;;;;;5037368;28;20213;-68
2022/07/30 08:54:41;;;;;;;6.72;2.30;;;23.20;99.90;;;;;;5024539;28;20239;-67
2022/07/30 08:57:07;;;;;;;1.70;1.50;;;23.20;99.90;;;;;;5029732;28;20203;-68
2022/07/30 08:59:36;;;;;;;3.90;2.55;;;23.30;99.90;;;;;;5032790;28;20229;-70
2022/07/30 09:02:03;;;;;;;6.45;1.73;;;23.40;99.90;;;;;;5031667;28;20218;-69
2022/07/30 09:04:29;;;;;;;4.35;1.70;;;23.50;99.90;;;;;;5031714;28;20225;-68
2022/07/30 09:06:57;;;;;;;7.25;2.78;;;23.60;99.90;;;;;;5030795;28;20206;-67
2022/07/30 09:09:24;;;;;;;3.17;1.42;;;23.60;99.90;;;;;;5030788;28;20220;-68
2022/07/30 09:11:51;;;;;;;5.28;2.05;;;23.70;99.90;;;;;;5033980;28;20199;-68
2022/07/30 09:14:18;;;;;;;3.10;1.80;;;23.80;99.90;;;;;;5028745;28;20215;-69
2022/07/30 09:16:45;;;;;;;6.40;2.00;;;24.00;99.90;;;;;;5029300;28;20211;-69
2022/07/30 09:19:14;;;;;;;3.92;1.88;;;24.10;99.90;;;;;;5030567;28;20254;-69
2022/07/30 09:21:41;;;;;;;4.72;2.40;;;24.10;99.90;;;;;;5031580;28;20217;-69
2022/07/30 09:24:11;;;;;;;3.65;1.85;;;24.20;99.70;;;;;;5028533;28;20225;-70
2022/07/30 09:26:56;;;;;;;3.88;1.75;;;24.50;99.70;;;;;;5028920;28;20249;-70
2022/07/30 09:29:24;;;;;;;2.45;2.17;;;24.60;99.10;;;;;;5031007;28;20643;-70
2022/07/30 09:31:58;;;;;;;1.75;1.50;;;24.70;98.90;;;;;;5030887;28;20581;-70
2022/07/30 09:34:27;;;;;;;2.95;1.60;;;24.80;98.80;;;;;;5026524;28;20210;-71
2022/07/30 09:36:55;;;;;;;2.90;2.08;;;24.90;98.50;;;;;;5031844;28;20655;-70
2022/07/30 09:39:34;;;;;;;3.22;1.60;;;24.90;98.30;;;;;;5031819;28;20661;-72
2022/07/30 09:42:02;;;;;;;2.35;1.60;;;24.90;98.20;;;;;;5033175;28;20682;-71
2022/07/30 09:44:30;;;;;;;2.40;1.55;;;24.90;98.10;;;;;;5032965;28;20218;-70
2022/07/30 09:46:58;;;;;;;4.00;1.45;;;24.80;98.00;;;;;;5032169;28;20659;-71
2022/07/30 09:49:26;;;;;;;2.47;1.63;;;24.60;98.20;;;;;;5031628;28;20289;-72
2022/07/30 09:51:53;;;;;;;4.18;3.05;;;24.50;98.20;;;;;;5032795;28;20207;-71
2022/07/30 09:54:20;;;;;;;2.95;1.77;;;24.50;98.20;;;;;;5032188;28;20269;-68
2022/07/30 09:57:04;;;;;;;2.28;1.48;;;24.40;98.40;;;;;;5033030;28;20210;-66
2022/07/30 09:59:32;;;;;;;2.22;1.73;;;24.30;98.50;;;;;;5030231;28;20210;-68
2022/07/30 10:02:00;;;;;;;4.32;1.92;;;24.20;98.50;;;;;;5032727;28;20220;-68
2022/07/30 10:04:28;;;;;;;6.95;1.60;;;24.10;98.60;;;;;;5032939;28;20655;-71
2022/07/30 10:06:55;;;;;;;3.55;1.80;;;23.90;98.50;;;;;;5032320;28;20718;-66
2022/07/30 10:09:25;;;;;;;2.28;1.55;;;23.80;98.70;;;;;;5034707;28;20206;-70
2022/07/30 10:11:55;;;;;;;2.08;1.40;;;23.80;98.70;;;;;;5034189;28;20210;-68
2022/07/30 10:14:24;;;;;;;4.88;1.60;;;23.80;98.70;;;;;;5033671;28;20606;-68
2022/07/30 10:16:52;;;;;;;5.30;1.50;;;23.70;98.60;;;;;;5031875;28;20550;-66
2022/07/30 10:19:20;;;;;;;2.80;1.50;;;23.70;98.70;;;;;;5033601;28;20246;-65
2022/07/30 10:21:48;;;;;;;1.90;1.50;;;23.70;98.70;;;;;;5032843;28;20211;-68
2022/07/30 10:24:17;;;;;;;1.33;1.23;;;23.70;98.80;;;;;;5028153;28;20210;-69
2022/07/30 10:26:45;;;;;;;3.08;1.77;;;23.70;98.90;;;;;;5034688;28;20242;-69
2022/07/30 10:29:16;;;;;;;1.95;1.38;;;23.60;99.00;;;;;;5034932;28;20203;-69
2022/07/30 10:31:43;;;;;;;2.80;1.80;;;23.50;99.20;;;;;;5032577;28;20203;-67
2022/07/30 10:34:10;;;;;;;2.30;1.70;;;23.60;99.00;;;;;;5029072;28;20214;-69
2022/07/30 10:36:40;;;;;;;2.10;1.30;;;23.50;98.50;;;;;;5032444;28;20563;-68
2022/07/30 10:39:08;;;;;;;2.70;1.70;;;23.40;98.00;;;;;;5027099;28;20734;-69
2022/07/30 10:41:47;;;;;;;4.10;1.80;;;23.40;98.00;;;;;;5018880;28;20217;-69
2022/07/30 10:44:37;;;;;;;1.55;1.45;;;23.30;98.00;;;;;;5032195;28;20281;-68
2022/07/30 10:47:07;;;;;;;2.40;1.60;;;23.20;98.40;;;;;;5032625;28;20226;-71
2022/07/30 10:49:35;;;;;;;2.33;1.65;;;23.20;98.90;;;;;;5029996;28;20203;-69
2022/07/30 10:52:02;;;;;;;4.43;1.88;;;23.20;99.00;;;;;;5026992;28;20553;-70
2022/07/30 10:54:40;;;;;;;2.05;1.52;;;23.10;99.40;;;;;;5032282;28;20242;-70
2022/07/30 10:57:10;;;;;;;3.35;1.60;;;23.00;99.90;;;;;;5029412;28;20206;-71
2022/07/30 11:00:13;;;;;;;2.45;1.40;;;22.90;99.90;;;;;;5032203;28;20222;-69
2022/07/30 11:03:00;;;;;;;4.15;2.15;;;22.80;99.90;;;;;;5022247;28;20714;-71
2022/07/30 11:05:27;;;;;;;2.53;1.60;;;22.80;99.90;;;;;;5023334;28;20202;-70
2022/07/30 11:07:54;;;;;;;3.35;1.90;;;22.60;99.90;;;;;;5031894;28;20210;-69
2022/07/30 11:10:39;;;;;;;4.03;1.73;;;22.50;99.90;;;;;;5030598;28;20650;-69
2022/07/30 11:13:06;;;;;;;2.22;1.58;;;22.50;99.90;;;;;;5030357;28;20710;-67
2022/07/30 11:15:56;;;;;;;2.50;1.83;;;22.50;99.90;;;;;;5030796;28;20206;-69
2022/07/30 11:18:24;;;;;;;5.32;2.20;;;22.50;99.90;;;;;;5030033;28;20206;-67
2022/07/30 11:21:13;;;;;;;3.33;1.80;;;22.40;99.90;;;;;;5032160;28;20210;-68
2022/07/30 11:23:41;;;;;;;2.65;1.80;;;22.40;99.90;;;;;;5031054;28;20214;-68
2022/07/30 11:26:09;;;;;;;2.70;1.90;;;22.40;99.90;;;;;;5029506;28;20230;-65
2022/07/30 11:28:40;;;;;;;4.80;2.22;;;22.30;99.90;;;;;;5025173;28;20266;-68
2022/07/30 11:31:30;;;;;;;5.00;2.13;;;22.30;99.90;;;;;;5033646;28;20205;-69
2022/07/30 11:34:26;;;;;;;5.70;2.10;;;22.20;99.90;;;;;;5035219;28;20630;-67
2022/07/30 11:37:04;;;;;;;2.55;1.70;;;22.10;99.90;;;;;;5034348;28;20294;-66
2022/07/30 11:40:04;;;;;;;2.50;2.22;;;22.10;99.90;;;;;;5035972;28;20227;-67
2022/07/30 11:42:32;;;;;;;3.33;2.20;;;22.00;99.90;;;;;;5035207;28;20194;-68
2022/07/30 11:45:25;;;;;;;2.85;2.35;;;21.90;99.90;;;;;;5033968;28;20666;-69
2022/07/30 11:47:56;;;;;;;5.70;2.40;;;21.80;99.90;;;;;;5032832;28;20222;-67
2022/07/30 11:50:25;;;;;;;4.15;2.50;;;21.80;99.90;;;;;;5031331;28;20644;-70
2022/07/30 11:52:53;;;;;;;4.10;2.47;;;21.80;99.90;;;;;;5026881;28;20302;-69
2022/07/30 11:55:25;;;;;;;4.28;2.17;;;21.80;99.90;;;;;;5031389;28;20239;-69
2022/07/30 11:57:53;;;;;;;3.95;2.50;;;21.70;99.90;;;;;;5028105;28;20302;-68
2022/07/30 12:00:19;;;;;;;3.80;2.70;;;21.70;99.90;;;;;;5032653;28;20254;-68
2022/07/30 12:02:47;;;;;;;4.15;2.10;;;21.60;99.90;;;;;;5033536;28;20218;-68
2022/07/30 12:05:15;;;;;;;2.58;2.10;;;21.60;99.90;;;;;;5034500;28;20607;-71
2022/07/30 12:07:42;;;;;;;2.50;2.30;;;21.50;99.90;;;;;;5032162;28;20217;-69
2022/07/30 12:10:13;;;;;;;5.05;2.60;;;21.50;99.90;;;;;;5030024;28;20209;-69
2022/07/30 12:12:40;;;;;;;3.25;2.53;;;21.40;99.90;;;;;;5027226;28;20210;-68
2022/07/30 12:15:08;;;;;;;2.95;2.10;;;21.40;99.90;;;;;;5036776;28;20214;-69
2022/07/30 12:17:45;;;;;;;7.63;2.80;;;21.40;99.90;;;;;;5028833;28;20230;-70
2022/07/30 12:20:18;;;;;;;5.15;2.88;;;21.30;99.90;;;;;;5035437;28;20574;-68
2022/07/30 12:22:45;;;;;;;3.95;2.83;;;21.30;99.90;;;;;;5033586;28;20210;-69
2022/07/30 12:25:13;;;;;;;4.43;2.80;;;21.30;99.90;;;;;;5032831;28;20579;-67
2022/07/30 12:27:44;;;;;;;5.93;3.00;;;21.30;99.90;;;;;;5028838;28;20221;-68
2022/07/30 12:30:12;;;;;;;3.78;2.95;;;21.30;99.90;;;;;;5035702;28;20198;-69
2022/07/30 12:32:39;;;;;;;3.13;2.83;;;21.30;99.90;;;;;;5027584;28;20218;-68
2022/07/30 12:35:06;;;;;;;5.60;3.00;;;21.30;99.90;;;;;;5024448;28;20669;-66
2022/07/30 12:37:35;;;;;;;3.97;2.97;;;21.30;99.90;;;;;;5035081;28;20237;-67
2022/07/30 12:40:08;;;;;;;4.20;2.60;;;21.40;99.90;;;;;;5032704;28;20289;-67
2022/07/30 12:42:36;;;;;;;5.90;3.63;;;21.40;99.90;;;;;;5035871;28;20245;-68
2022/07/30 12:45:02;;;;;;;7.35;2.65;;;21.40;99.90;;;;;;5035764;28;20210;-68
2022/07/30 12:47:32;;;;;;;3.53;3.13;;;21.40;99.90;;;;;;5030288;28;20570;-68
2022/07/30 12:50:01;;;;;;;2.90;2.42;;;21.40;99.90;;;;;;5029508;28;20203;-67
2022/07/30 12:52:29;;;;;;;4.70;2.92;;;21.30;99.90;;;;;;5029136;28;20213;-67
2022/07/30 12:55:07;;;;;;;3.80;2.85;;;21.40;99.90;;;;;;5030148;28;20247;-71
2022/07/30 12:57:55;;;;;;;2.70;2.45;;;21.40;99.90;;;;;;5031545;28;20207;-68